Time;durP1;ratioP1;P1;durP2;ratioP2;P2;SDS_P1;SDS_P2;PMS_P1;PMS_P2;Temp;Humidity;BMP_temperature;BMP_pressure;BME280_temperature;BME280_humidity;BME280_pressure;Samples;Min_cycle;Max_cycle;Signal;HPM_P1;HPM_P2
2022/10/11 00:02:23;;;;;;;11.00;10.40;;;16.10;63.00;;;;;;5046824;28;20417;-57
2022/10/11 00:04:49;;;;;;;9.30;8.60;;;16.00;62.60;;;;;;5047733;28;20179;-57
2022/10/11 00:07:16;;;;;;;8.63;8.13;;;16.00;63.50;;;;;;5047678;28;20421;-58
2022/10/11 00:09:42;;;;;;;10.23;9.30;;;16.00;63.40;;;;;;5045536;28;20417;-58
2022/10/11 00:12:08;;;;;;;9.27;8.67;;;16.10;62.80;;;;;;5046425;28;20413;-59
2022/10/11 00:14:34;;;;;;;10.83;10.03;;;16.10;62.40;;;;;;5046799;28;20211;-58
2022/10/11 00:16:59;;;;;;;10.80;9.80;;;16.10;61.80;;;;;;5045898;28;20244;-58
2022/10/11 00:19:25;;;;;;;9.97;9.17;;;16.10;61.40;;;;;;5044521;28;20479;-58
2022/10/11 00:21:51;;;;;;;10.07;9.37;;;16.10;61.60;;;;;;5045439;28;20298;-58
2022/10/11 00:24:17;;;;;;;10.30;9.40;;;16.10;61.30;;;;;;5044490;28;20950;-65
2022/10/11 00:26:43;;;;;;;9.57;9.10;;;16.10;61.40;;;;;;5045434;28;20203;-58
2022/10/11 00:29:10;;;;;;;8.77;8.23;;;16.00;61.10;;;;;;5048014;28;20183;-59
2022/10/11 00:31:36;;;;;;;10.13;9.53;;;15.90;62.30;;;;;;5045298;28;20426;-58
2022/10/11 00:34:02;;;;;;;10.77;9.90;;;15.70;63.00;;;;;;5044654;28;20789;-59
2022/10/11 00:36:27;;;;;;;10.50;9.77;;;15.60;64.00;;;;;;5045331;28;20417;-58
2022/10/11 00:38:53;;;;;;;9.63;8.90;;;15.50;64.90;;;;;;5047237;28;20384;-59
2022/10/11 00:41:19;;;;;;;10.70;9.60;;;15.40;65.80;;;;;;5043790;28;20183;-58
2022/10/11 00:43:44;;;;;;;10.03;9.40;;;15.40;66.20;;;;;;5045537;28;20183;-59
2022/10/11 00:46:28;;;;;;;9.80;9.00;;;15.50;66.30;;;;;;5045516;28;20269;-58
2022/10/11 00:49:33;;;;;;;13.13;10.17;;;15.50;64.50;;;;;;5044086;28;20179;-58
2022/10/11 00:52:19;;;;;;;9.77;8.90;;;15.40;64.10;;;;;;5021859;28;20432;-58
2022/10/11 00:54:47;;;;;;;10.57;9.77;;;15.40;64.50;;;;;;5044378;28;20439;-58
2022/10/11 00:57:18;;;;;;;11.67;10.60;;;15.30;65.10;;;;;;5045640;28;20432;-58
2022/10/11 00:59:48;;;;;;;11.60;10.73;;;15.20;65.40;;;;;;5045633;28;20544;-58
2022/10/11 01:02:14;;;;;;;9.10;8.40;;;15.20;66.10;;;;;;5043558;28;20424;-58
2022/10/11 01:04:41;;;;;;;9.97;9.37;;;15.10;66.00;;;;;;5044740;28;20417;-58
2022/10/11 01:07:08;;;;;;;12.53;11.00;;;15.20;66.10;;;;;;5045129;28;20410;-58
2022/10/11 01:09:34;;;;;;;12.37;8.93;;;15.30;66.20;;;;;;5042202;28;20941;-58
2022/10/11 01:12:03;;;;;;;10.60;9.63;;;15.40;65.50;;;;;;5044735;28;20413;-58
2022/10/11 01:14:40;;;;;;;9.33;8.63;;;15.50;63.90;;;;;;5043389;28;20456;-58
2022/10/11 01:17:06;;;;;;;10.50;9.27;;;15.60;62.50;;;;;;5044897;28;20414;-58
2022/10/11 01:19:46;;;;;;;9.83;9.30;;;15.70;61.10;;;;;;5043241;28;20453;-58
2022/10/11 01:22:20;;;;;;;10.63;9.80;;;15.70;60.00;;;;;;5043213;28;20190;-58
2022/10/11 01:25:04;;;;;;;10.33;9.50;;;15.70;59.40;;;;;;5043491;28;20417;-65
2022/10/11 01:27:47;;;;;;;10.83;10.07;;;15.70;59.00;;;;;;5046030;28;20823;-65
2022/10/11 01:30:28;;;;;;;9.90;9.30;;;15.70;58.80;;;;;;5043643;28;20433;-65
2022/10/11 01:32:59;;;;;;;10.00;9.17;;;15.70;59.30;;;;;;5045901;28;20426;-65
2022/10/11 01:35:29;;;;;;;11.27;10.37;;;15.80;59.70;;;;;;5043454;28;20823;-65
2022/10/11 01:38:16;;;;;;;11.40;10.33;;;15.70;59.50;;;;;;5044551;28;20445;-58
2022/10/11 01:40:57;;;;;;;11.03;10.23;;;15.80;59.50;;;;;;5043161;28;20497;-57
2022/10/11 01:43:24;;;;;;;12.43;11.40;;;15.80;59.30;;;;;;5042271;28;20428;-57
2022/10/11 01:45:52;;;;;;;11.37;10.57;;;15.90;58.50;;;;;;5043369;28;20433;-57
2022/10/11 01:48:18;;;;;;;10.60;10.00;;;15.90;58.20;;;;;;5042047;28;20412;-57
2022/10/11 01:50:50;;;;;;;11.10;10.60;;;15.90;58.00;;;;;;5042676;28;20852;-57
2022/10/11 01:53:34;;;;;;;10.83;10.03;;;15.90;57.70;;;;;;5043133;28;20272;-57
2022/10/11 01:56:08;;;;;;;11.70;10.80;;;15.90;57.30;;;;;;5042925;28;20436;-57
2022/10/11 01:58:59;;;;;;;11.73;10.93;;;15.90;56.80;;;;;;5043836;28;20968;-57
2022/10/11 02:01:46;;;;;;;11.73;11.00;;;15.90;56.60;;;;;;5040447;28;20476;-64
2022/10/11 02:04:27;;;;;;;11.50;10.60;;;15.80;56.80;;;;;;5041906;28;20410;-64
2022/10/11 02:07:30;;;;;;;11.90;11.20;;;15.80;56.50;;;;;;5046033;28;20432;-64
2022/10/11 02:10:05;;;;;;;10.87;10.00;;;15.80;56.50;;;;;;5043262;28;20445;-64
2022/10/11 02:13:04;;;;;;;12.73;10.03;;;15.80;56.50;;;;;;5063226;28;20404;-64
2022/10/11 02:15:32;;;;;;;11.70;11.00;;;15.80;56.90;;;;;;5044300;28;20532;-64
2022/10/11 02:18:01;;;;;;;11.93;10.90;;;15.90;56.90;;;;;;5042798;28;20932;-64
2022/10/11 02:20:30;;;;;;;10.67;9.77;;;15.90;56.80;;;;;;5045298;28;20611;-64
2022/10/11 02:23:04;;;;;;;11.27;10.47;;;15.90;56.60;;;;;;5049874;28;20432;-64
2022/10/11 02:25:33;;;;;;;10.97;10.10;;;15.90;56.60;;;;;;5050879;28;20471;-64
2022/10/11 02:28:02;;;;;;;11.77;11.07;;;15.80;56.50;;;;;;5050534;28;20409;-57
2022/10/11 02:30:29;;;;;;;11.70;10.80;;;15.80;56.50;;;;;;5048684;28;20413;-57
2022/10/11 02:32:58;;;;;;;11.47;10.57;;;15.80;56.50;;;;;;5048271;28;20823;-58
2022/10/11 02:35:27;;;;;;;11.70;10.90;;;15.80;56.50;;;;;;5048916;28;20507;-57
2022/10/11 02:38:11;;;;;;;12.43;11.63;;;15.80;56.50;;;;;;5051453;28;20467;-58
2022/10/11 02:40:41;;;;;;;12.60;11.80;;;15.80;56.50;;;;;;5048620;28;20460;-64
2022/10/11 02:43:22;;;;;;;12.07;11.17;;;15.80;56.50;;;;;;5051502;28;20412;-64
2022/10/11 02:45:52;;;;;;;13.33;12.27;;;15.80;56.50;;;;;;5050759;28;20456;-64
2022/10/11 02:48:18;;;;;;;12.03;11.30;;;15.80;56.50;;;;;;5048244;28;21727;-58
2022/10/11 02:50:44;;;;;;;12.80;11.83;;;15.80;56.50;;;;;;5047981;28;20425;-57
2022/10/11 02:53:10;;;;;;;12.90;11.70;;;15.80;56.50;;;;;;5048439;28;20562;-57
2022/10/11 02:55:36;;;;;;;14.43;13.57;;;15.80;56.50;;;;;;5050355;28;20417;-57
2022/10/11 02:58:02;;;;;;;13.20;12.20;;;15.80;56.50;;;;;;5050111;28;20175;-57
2022/10/11 03:00:28;;;;;;;13.40;12.40;;;15.80;57.00;;;;;;5049199;28;20456;-63
2022/10/11 03:02:54;;;;;;;12.57;11.87;;;15.70;57.70;;;;;;5048044;28;20451;-64
2022/10/11 03:05:20;;;;;;;12.37;11.57;;;15.60;57.90;;;;;;5049499;28;20175;-64
2022/10/11 03:07:45;;;;;;;13.33;12.00;;;15.70;58.40;;;;;;5048958;28;20232;-64
2022/10/11 03:10:11;;;;;;;12.33;11.50;;;15.70;58.30;;;;;;5049688;28;20804;-64
2022/10/11 03:12:37;;;;;;;13.57;12.43;;;15.70;58.30;;;;;;5052873;28;20210;-64
2022/10/11 03:15:03;;;;;;;13.50;12.70;;;15.80;58.30;;;;;;5052654;28;20191;-64
2022/10/11 03:17:29;;;;;;;14.03;12.83;;;15.80;58.40;;;;;;5051668;28;20182;-64
2022/10/11 03:19:54;;;;;;;14.40;12.33;;;15.80;58.50;;;;;;5051648;28;20461;-64
2022/10/11 03:22:21;;;;;;;13.17;12.20;;;15.80;58.50;;;;;;5053681;28;20536;-64
2022/10/11 03:24:46;;;;;;;13.53;12.73;;;15.90;58.40;;;;;;5052921;28;20605;-64
2022/10/11 03:27:12;;;;;;;14.47;13.50;;;15.90;58.20;;;;;;5053872;28;20417;-64
2022/10/11 03:29:38;;;;;;;14.63;13.73;;;15.90;58.00;;;;;;5055151;28;20175;-64
2022/10/11 03:32:03;;;;;;;14.83;13.63;;;15.90;57.80;;;;;;5054026;28;20187;-64
2022/10/11 03:34:29;;;;;;;15.43;14.10;;;16.00;57.90;;;;;;5052827;28;20179;-64
2022/10/11 03:36:55;;;;;;;14.50;12.93;;;16.00;57.70;;;;;;5051079;28;20175;-64
2022/10/11 03:39:20;;;;;;;15.20;13.47;;;15.90;57.20;;;;;;5069343;28;20195;-64
2022/10/11 03:41:46;;;;;;;13.80;12.90;;;15.90;57.40;;;;;;5068709;28;20260;-64
2022/10/11 03:44:11;;;;;;;15.33;13.83;;;15.90;57.70;;;;;;5051037;28;20190;-64
2022/10/11 03:46:37;;;;;;;14.93;14.03;;;16.00;58.00;;;;;;5051897;28;20179;-64
2022/10/11 03:49:03;;;;;;;15.63;14.13;;;15.90;58.00;;;;;;5053090;28;20191;-64
2022/10/11 03:51:30;;;;;;;17.70;13.90;;;15.90;57.80;;;;;;5052495;28;20682;-64
2022/10/11 03:53:55;;;;;;;15.07;13.90;;;16.00;57.70;;;;;;5051821;28;20685;-64
2022/10/11 03:56:21;;;;;;;14.50;13.30;;;15.90;57.10;;;;;;5054116;28;20414;-64
2022/10/11 03:58:46;;;;;;;15.00;13.97;;;15.90;57.40;;;;;;5054302;28;20180;-64
2022/10/11 04:01:12;;;;;;;14.97;13.70;;;15.90;57.60;;;;;;5054560;28;20171;-64
2022/10/11 04:03:38;;;;;;;15.27;13.97;;;15.90;57.40;;;;;;5054591;28;20292;-64
2022/10/11 04:06:04;;;;;;;16.63;14.17;;;15.90;57.30;;;;;;5055062;28;20206;-64
2022/10/11 04:08:29;;;;;;;16.57;14.97;;;15.90;56.60;;;;;;5052620;28;20244;-64
2022/10/11 04:10:55;;;;;;;16.57;15.20;;;15.90;56.60;;;;;;5053907;28;20508;-64
2022/10/11 04:13:21;;;;;;;16.90;15.40;;;16.00;56.70;;;;;;5052575;28;20202;-57
2022/10/11 04:15:46;;;;;;;17.37;15.97;;;15.90;56.60;;;;;;5053269;28;20191;-57
2022/10/11 04:18:12;;;;;;;20.40;18.60;;;15.90;56.60;;;;;;5056154;28;20236;-64
2022/10/11 04:20:38;;;;;;;22.87;17.27;;;15.90;56.60;;;;;;5053523;28;20214;-64
2022/10/11 04:23:03;;;;;;;21.37;16.77;;;15.90;56.60;;;;;;5053737;28;20184;-64
2022/10/11 04:25:29;;;;;;;19.03;17.50;;;15.90;56.50;;;;;;5052583;28;20225;-64
2022/10/11 04:27:54;;;;;;;18.03;16.40;;;15.90;56.60;;;;;;5053657;28;20547;-64
2022/10/11 04:30:20;;;;;;;17.07;15.33;;;15.90;56.60;;;;;;5051832;28;20291;-57
2022/10/11 04:32:46;;;;;;;18.00;16.40;;;15.90;56.60;;;;;;5055314;28;20183;-58
2022/10/11 04:35:12;;;;;;;20.07;16.80;;;15.80;56.50;;;;;;5053392;28;20179;-58
2022/10/11 04:37:38;;;;;;;20.20;18.20;;;15.80;57.50;;;;;;5055431;28;20421;-58
2022/10/11 04:40:05;;;;;;;17.63;16.30;;;15.90;57.50;;;;;;5054400;28;20551;-58
2022/10/11 04:42:31;;;;;;;17.97;16.27;;;15.90;58.00;;;;;;5055614;28;20572;-58
2022/10/11 04:44:57;;;;;;;19.57;17.57;;;15.90;56.60;;;;;;5054717;28;20429;-58
2022/10/11 04:47:22;;;;;;;17.47;15.87;;;16.00;56.70;;;;;;5055009;28;20909;-57
2022/10/11 04:49:48;;;;;;;19.23;17.33;;;16.00;56.70;;;;;;5054551;28;20620;-58
2022/10/11 04:52:14;;;;;;;20.00;16.07;;;16.00;56.20;;;;;;5053563;28;20554;-57
2022/10/11 04:54:39;;;;;;;29.63;17.23;;;16.00;55.80;;;;;;5053961;28;20183;-57
2022/10/11 04:57:05;;;;;;;17.93;16.47;;;16.00;55.70;;;;;;5055063;28;20605;-65
2022/10/11 04:59:31;;;;;;;19.07;17.37;;;16.00;55.40;;;;;;5052904;28;20199;-64
2022/10/11 05:01:57;;;;;;;19.90;17.93;;;16.00;55.90;;;;;;5051053;28;20421;-64
2022/10/11 05:04:22;;;;;;;19.63;17.80;;;16.00;55.90;;;;;;5054094;28;20210;-64
2022/10/11 05:06:48;;;;;;;21.03;19.03;;;16.00;56.30;;;;;;5051820;28;20679;-64
2022/10/11 05:09:14;;;;;;;20.60;18.70;;;16.00;55.60;;;;;;5048329;28;20187;-64
2022/10/11 05:11:39;;;;;;;18.73;16.90;;;15.90;55.50;;;;;;5052283;28;20195;-64
2022/10/11 05:14:05;;;;;;;22.80;18.63;;;15.90;55.70;;;;;;5053569;28;20198;-63
2022/10/11 05:16:31;;;;;;;20.73;18.60;;;15.90;55.70;;;;;;5051287;28;20179;-63
2022/10/11 05:18:56;;;;;;;21.03;18.93;;;15.90;55.80;;;;;;5053219;28;20658;-64
2022/10/11 05:21:23;;;;;;;21.30;19.20;;;15.90;55.70;;;;;;5051796;28;20187;-64
2022/10/11 05:23:51;;;;;;;21.90;20.03;;;15.90;55.40;;;;;;5051644;28;20302;-64
2022/10/11 05:26:18;;;;;;;19.03;17.03;;;15.90;55.30;;;;;;5051758;28;20418;-64
2022/10/11 05:28:44;;;;;;;22.27;17.90;;;15.90;55.60;;;;;;5052978;28;20413;-64
2022/10/11 05:31:10;;;;;;;24.70;18.97;;;15.90;55.70;;;;;;5067621;28;20912;-64
2022/10/11 05:33:36;;;;;;;23.63;21.40;;;15.90;55.70;;;;;;5050623;28;20186;-57
2022/10/11 05:36:02;;;;;;;20.77;17.77;;;15.90;55.60;;;;;;5052368;28;20417;-57
2022/10/11 05:38:27;;;;;;;19.57;17.73;;;15.90;55.70;;;;;;5049931;28;20171;-57
2022/10/11 05:40:53;;;;;;;20.67;18.43;;;16.00;55.60;;;;;;5050029;28;20302;-64
2022/10/11 05:43:19;;;;;;;19.17;17.40;;;16.00;55.70;;;;;;5051089;28;20183;-57
2022/10/11 05:45:45;;;;;;;20.23;18.47;;;15.90;55.50;;;;;;5048096;28;20171;-57
2022/10/11 05:48:11;;;;;;;21.77;19.57;;;16.00;55.50;;;;;;5050013;28;20179;-58
2022/10/11 05:50:37;;;;;;;20.00;18.00;;;15.90;55.50;;;;;;5050468;28;20413;-57
2022/10/11 05:53:03;;;;;;;20.27;18.33;;;15.90;55.10;;;;;;5051076;28;20421;-58
2022/10/11 05:55:33;;;;;;;20.70;17.73;;;16.00;55.20;;;;;;5048571;28;20425;-57
2022/10/11 05:57:59;;;;;;;19.10;17.50;;;15.90;55.10;;;;;;5049384;28;20417;-58
2022/10/11 06:00:25;;;;;;;20.07;18.03;;;15.90;55.20;;;;;;5050044;28;21042;-58
2022/10/11 06:02:51;;;;;;;18.70;17.00;;;15.90;55.10;;;;;;5048420;28;20198;-58
2022/10/11 06:05:17;;;;;;;18.83;16.90;;;15.90;54.50;;;;;;5050507;28;20179;-58
2022/10/11 06:07:43;;;;;;;19.50;17.50;;;16.00;54.50;;;;;;5050007;28;20937;-64
2022/10/11 06:10:09;;;;;;;21.30;18.10;;;15.90;54.10;;;;;;5049178;28;20421;-64
2022/10/11 06:12:35;;;;;;;17.73;16.33;;;15.80;54.30;;;;;;5048217;28;20483;-64
2022/10/11 06:15:02;;;;;;;20.63;17.43;;;15.80;54.50;;;;;;5050031;28;20449;-64
2022/10/11 06:17:28;;;;;;;23.60;16.27;;;15.80;54.60;;;;;;5048135;28;20182;-64
2022/10/11 06:19:54;;;;;;;25.40;17.90;;;15.80;54.60;;;;;;5046752;28;21118;-64
2022/10/11 06:22:19;;;;;;;17.93;16.40;;;15.80;54.30;;;;;;5047837;28;20228;-64
2022/10/11 06:24:45;;;;;;;19.37;17.50;;;15.80;54.40;;;;;;5047141;28;20580;-65
2022/10/11 06:27:11;;;;;;;19.67;17.77;;;15.80;54.20;;;;;;5046953;28;20261;-64
2022/10/11 06:29:36;;;;;;;20.43;17.83;;;15.70;54.40;;;;;;5048773;28;20262;-64
2022/10/11 06:32:02;;;;;;;18.23;16.53;;;15.70;54.50;;;;;;5047871;28;20572;-64
2022/10/11 06:34:28;;;;;;;19.40;17.40;;;15.70;54.70;;;;;;5048189;28;20183;-64
2022/10/11 06:36:54;;;;;;;18.03;16.37;;;15.70;54.60;;;;;;5047971;28;20257;-64
2022/10/11 06:39:19;;;;;;;18.23;16.53;;;15.80;54.60;;;;;;5050603;28;20199;-64
2022/10/11 06:41:45;;;;;;;17.83;16.23;;;15.70;54.40;;;;;;5031046;28;20181;-66
2022/10/11 06:44:12;;;;;;;18.47;16.67;;;15.70;55.20;;;;;;5047616;28;20639;-64
2022/10/11 06:46:37;;;;;;;17.00;15.60;;;15.70;54.70;;;;;;5046111;28;20515;-64
2022/10/11 06:49:03;;;;;;;17.53;15.83;;;15.70;54.90;;;;;;5048465;28;20414;-64
2022/10/11 06:51:29;;;;;;;19.47;17.60;;;15.70;54.90;;;;;;5046604;28;20334;-64
2022/10/11 06:53:57;;;;;;;18.00;16.23;;;15.70;54.90;;;;;;5046817;28;20228;-64
2022/10/11 06:56:25;;;;;;;18.70;17.10;;;15.70;54.80;;;;;;5047533;28;20304;-64
2022/10/11 06:58:52;;;;;;;17.00;15.50;;;15.70;55.40;;;;;;5047993;28;20428;-64
2022/10/11 07:01:20;;;;;;;18.63;17.03;;;15.70;54.80;;;;;;5046652;28;20800;-64
2022/10/11 07:03:46;;;;;;;18.53;16.83;;;15.70;54.70;;;;;;5047281;28;20416;-64
2022/10/11 07:06:15;;;;;;;19.33;17.30;;;15.70;54.60;;;;;;5047046;28;20508;-64
2022/10/11 07:08:41;;;;;;;18.87;16.83;;;15.70;54.20;;;;;;5048152;28;20417;-65
2022/10/11 07:11:09;;;;;;;18.93;16.00;;;15.70;54.40;;;;;;5049637;28;20779;-64
2022/10/11 07:13:36;;;;;;;18.33;16.53;;;15.70;54.20;;;;;;5051007;28;20222;-64
2022/10/11 07:16:08;;;;;;;22.40;17.03;;;15.70;54.30;;;;;;5051067;28;20410;-64
2022/10/11 07:18:34;;;;;;;19.97;16.70;;;15.70;54.40;;;;;;5050278;28;20418;-65
2022/10/11 07:21:05;;;;;;;18.93;17.13;;;15.70;55.40;;;;;;5050269;28;20461;-65
2022/10/11 07:23:31;;;;;;;21.90;19.90;;;15.70;54.70;;;;;;5050470;28;20404;-64
2022/10/11 07:25:57;;;;;;;17.77;16.17;;;15.70;54.60;;;;;;5050592;28;20453;-64
2022/10/11 07:28:23;;;;;;;17.63;15.83;;;15.70;54.80;;;;;;5066746;28;20929;-65
2022/10/11 07:30:50;;;;;;;19.87;16.73;;;15.70;54.60;;;;;;5051741;28;20422;-64
2022/10/11 07:33:16;;;;;;;17.77;16.10;;;15.70;54.50;;;;;;5050535;28;20467;-64
2022/10/11 07:35:42;;;;;;;18.93;16.90;;;15.70;54.60;;;;;;5051674;28;20436;-64
2022/10/11 07:38:07;;;;;;;18.10;16.30;;;15.70;54.70;;;;;;5051615;28;20410;-64
2022/10/11 07:40:44;;;;;;;19.13;16.93;;;15.70;54.20;;;;;;5048980;28;20247;-64
2022/10/11 07:43:10;;;;;;;23.50;16.30;;;15.70;54.30;;;;;;5048917;28;20262;-57
2022/10/11 07:45:40;;;;;;;18.90;16.37;;;15.70;54.20;;;;;;5050161;28;20418;-57
2022/10/11 07:48:07;;;;;;;23.17;16.67;;;15.70;54.20;;;;;;5069395;28;20398;-57
2022/10/11 07:50:33;;;;;;;17.80;16.10;;;15.70;54.10;;;;;;5048294;28;20508;-57
2022/10/11 07:52:59;;;;;;;18.30;16.40;;;15.70;54.40;;;;;;5049053;28;20421;-58
2022/10/11 07:55:26;;;;;;;22.93;16.40;;;15.70;54.40;;;;;;5048981;28;20440;-57
2022/10/11 07:57:54;;;;;;;20.57;16.50;;;15.70;54.40;;;;;;5050894;28;20272;-57
2022/10/11 08:00:19;;;;;;;18.07;16.47;;;15.70;54.20;;;;;;5051760;28;21005;-57
2022/10/11 08:02:45;;;;;;;18.87;16.90;;;15.70;54.30;;;;;;5050898;28;20417;-57
2022/10/11 08:05:11;;;;;;;20.80;19.10;;;15.70;54.20;;;;;;5048449;28;20168;-57
2022/10/11 08:07:36;;;;;;;18.73;16.80;;;15.70;54.20;;;;;;5050569;28;20172;-57
2022/10/11 08:10:04;;;;;;;18.47;16.67;;;15.70;54.30;;;;;;5049038;28;20229;-57
2022/10/11 08:12:30;;;;;;;17.40;15.90;;;15.70;54.20;;;;;;5049011;28;20610;-57
2022/10/11 08:14:56;;;;;;;18.90;16.27;;;15.70;54.60;;;;;;5051137;28;20522;-57
2022/10/11 08:17:22;;;;;;;22.00;19.80;;;15.70;54.00;;;;;;5049655;28;20554;-57
2022/10/11 08:19:47;;;;;;;23.60;21.73;;;15.80;53.70;;;;;;5049395;28;20453;-64
2022/10/11 08:22:13;;;;;;;20.63;18.60;;;15.80;53.30;;;;;;5049563;28;20179;-64
2022/10/11 08:24:38;;;;;;;19.40;16.13;;;15.70;53.40;;;;;;5049260;28;20182;-64
2022/10/11 08:27:04;;;;;;;18.90;17.00;;;15.70;53.50;;;;;;5050428;28;20270;-65
2022/10/11 08:29:31;;;;;;;17.10;15.50;;;15.70;53.80;;;;;;5050067;28;20579;-65
2022/10/11 08:31:57;;;;;;;21.40;17.57;;;15.70;53.90;;;;;;5049344;28;20175;-64
2022/10/11 08:34:23;;;;;;;17.17;15.37;;;15.70;54.00;;;;;;5049214;28;20422;-64
2022/10/11 08:36:48;;;;;;;22.30;20.00;;;15.60;54.30;;;;;;5050159;28;20943;-65
2022/10/11 08:39:14;;;;;;;22.77;20.40;;;15.60;53.80;;;;;;5049836;28;20248;-64
2022/10/11 08:41:56;;;;;;;23.50;21.37;;;15.60;54.10;;;;;;5047221;28;20677;-64
2022/10/11 08:44:31;;;;;;;18.73;15.80;;;15.60;53.90;;;;;;5050663;28;20542;-65
2022/10/11 08:47:03;;;;;;;22.53;20.27;;;15.50;54.50;;;;;;5047489;28;20475;-65
2022/10/11 08:49:32;;;;;;;22.57;20.60;;;15.50;54.50;;;;;;5050977;28;20410;-64
2022/10/11 08:52:12;;;;;;;22.17;20.07;;;15.50;54.60;;;;;;5048815;28;20414;-64
2022/10/11 08:54:50;;;;;;;21.50;19.70;;;15.50;54.60;;;;;;5048986;28;20409;-64
2022/10/11 08:57:21;;;;;;;22.73;20.67;;;15.50;55.10;;;;;;5046599;28;20421;-64
2022/10/11 08:59:54;;;;;;;23.73;21.70;;;15.50;55.20;;;;;;5048655;28;20965;-65
2022/10/11 09:02:24;;;;;;;24.17;21.90;;;15.50;54.90;;;;;;5048840;28;21048;-65
2022/10/11 09:04:52;;;;;;;19.80;17.23;;;15.50;54.60;;;;;;5047881;28;20426;-57
2022/10/11 09:07:29;;;;;;;21.60;19.67;;;15.60;54.50;;;;;;5046160;28;20413;-58
2022/10/11 09:10:23;;;;;;;23.03;20.80;;;15.60;54.60;;;;;;5048371;28;20420;-58
2022/10/11 09:13:17;;;;;;;23.53;16.80;;;15.60;54.70;;;;;;5047426;28;20413;-64
2022/10/11 09:16:12;;;;;;;17.90;16.03;;;15.60;54.40;;;;;;5046359;28;20429;-64
2022/10/11 09:19:08;;;;;;;23.20;20.80;;;15.60;54.10;;;;;;5045232;28;20462;-64
2022/10/11 09:21:37;;;;;;;27.33;22.70;;;15.60;54.10;;;;;;5049274;28;20825;-65
2022/10/11 09:24:57;;;;;;;23.73;21.47;;;15.70;53.70;;;;;;5048606;28;20936;-64
2022/10/11 09:27:30;;;;;;;24.13;21.93;;;15.60;53.60;;;;;;4967305;28;20413;-62
2022/10/11 09:29:58;;;;;;;24.10;21.50;;;15.60;53.60;;;;;;5033808;28;20416;-58
2022/10/11 09:32:30;;;;;;;22.33;19.97;;;15.60;54.20;;;;;;5046173;28;20863;-57
2022/10/11 09:35:12;;;;;;;22.10;20.00;;;15.60;54.20;;;;;;5047774;28;20921;-57
2022/10/11 09:37:54;;;;;;;21.93;20.00;;;15.70;54.20;;;;;;5047287;28;20488;-57
2022/10/11 09:40:32;;;;;;;22.67;20.73;;;15.70;54.20;;;;;;5043441;28;20505;-57
2022/10/11 09:42:58;;;;;;;25.50;21.87;;;15.70;54.20;;;;;;5047176;28;20488;-57
2022/10/11 09:45:24;;;;;;;24.30;21.90;;;15.70;53.70;;;;;;5049421;28;20794;-57
2022/10/11 09:47:53;;;;;;;24.17;22.07;;;15.70;53.30;;;;;;5053018;28;20412;-57
2022/10/11 09:50:24;;;;;;;23.87;21.43;;;15.70;52.60;;;;;;5046961;28;20457;-57
2022/10/11 09:52:56;;;;;;;22.93;20.77;;;15.70;52.60;;;;;;5047109;28;20753;-57
2022/10/11 09:55:42;;;;;;;22.63;20.37;;;15.70;53.00;;;;;;5045478;28;20414;-57
2022/10/11 09:58:28;;;;;;;24.47;21.97;;;15.70;52.80;;;;;;5064445;28;20421;-57
2022/10/11 10:00:59;;;;;;;23.70;21.67;;;15.70;52.80;;;;;;5046089;28;20484;-56
2022/10/11 10:03:31;;;;;;;18.43;16.63;;;15.70;53.10;;;;;;5045777;28;20410;-63
2022/10/11 10:06:20;;;;;;;21.00;18.37;;;15.70;53.30;;;;;;5048247;28;20421;-63
2022/10/11 10:08:46;;;;;;;23.17;20.87;;;15.80;53.50;;;;;;5046630;28;20833;-63
2022/10/11 10:11:13;;;;;;;24.50;22.10;;;15.80;53.00;;;;;;5046967;28;20409;-64
2022/10/11 10:13:54;;;;;;;24.20;21.70;;;15.80;52.90;;;;;;5046867;28;20190;-63
2022/10/11 10:16:32;;;;;;;25.83;23.57;;;15.80;52.70;;;;;;5047906;28;20471;-63
2022/10/11 10:19:06;;;;;;;21.13;18.47;;;15.90;52.70;;;;;;5045554;28;20421;-63
2022/10/11 10:21:47;;;;;;;19.60;17.30;;;15.90;52.60;;;;;;5046944;28;20464;-63
2022/10/11 10:24:36;;;;;;;22.33;18.50;;;15.90;52.20;;;;;;5047216;28;20416;-63
2022/10/11 10:27:05;;;;;;;23.10;20.60;;;15.90;51.80;;;;;;5035824;28;20425;-63
2022/10/11 10:29:31;;;;;;;20.47;17.00;;;15.90;51.60;;;;;;5045903;28;20467;-64
2022/10/11 10:31:56;;;;;;;19.67;17.97;;;15.90;51.40;;;;;;5047286;28;20843;-63
2022/10/11 10:34:48;;;;;;;19.20;17.20;;;15.90;51.30;;;;;;5046159;28;20259;-64
2022/10/11 10:37:35;;;;;;;21.40;19.30;;;15.90;51.40;;;;;;5045849;28;20179;-63
2022/10/11 10:40:13;;;;;;;22.63;18.60;;;15.90;51.60;;;;;;5064392;28;20463;-63
2022/10/11 10:42:39;;;;;;;19.17;17.33;;;15.90;51.50;;;;;;5047047;28;20417;-63
2022/10/11 10:45:07;;;;;;;20.67;18.67;;;15.90;52.00;;;;;;5050970;28;20787;-64
2022/10/11 10:47:54;;;;;;;19.50;17.60;;;15.90;52.00;;;;;;5052364;28;20171;-63
2022/10/11 10:50:53;;;;;;;22.37;17.80;;;15.90;51.70;;;;;;5050835;28;20902;-63
2022/10/11 10:53:36;;;;;;;23.20;16.60;;;15.90;51.70;;;;;;5052495;28;20421;-63
2022/10/11 10:56:24;;;;;;;18.43;16.83;;;16.00;51.80;;;;;;5050586;28;20921;-64
2022/10/11 10:58:52;;;;;;;21.40;18.10;;;16.00;51.80;;;;;;5049944;28;20417;-64
2022/10/11 11:01:24;;;;;;;19.40;17.40;;;16.10;51.80;;;;;;5049468;28;20456;-57
2022/10/11 11:04:17;;;;;;;20.30;18.10;;;16.10;50.60;;;;;;5048726;28;20504;-57
2022/10/11 11:07:13;;;;;;;18.87;17.07;;;16.10;50.00;;;;;;5050506;28;20413;-57
2022/10/11 11:09:53;;;;;;;20.13;15.93;;;16.00;50.30;;;;;;5048415;28;20429;-57
2022/10/11 11:12:32;;;;;;;18.37;16.70;;;16.00;50.70;;;;;;5052773;28;20409;-57
2022/10/11 11:15:06;;;;;;;20.43;16.40;;;16.10;50.70;;;;;;5052708;28;20866;-58
2022/10/11 11:17:55;;;;;;;18.70;16.90;;;16.10;50.50;;;;;;5051559;28;20499;-59
2022/10/11 11:20:42;;;;;;;18.73;17.00;;;16.10;50.70;;;;;;5049145;28;20461;-59
2022/10/11 11:23:22;;;;;;;18.60;16.60;;;16.10;50.50;;;;;;5051288;28;20445;-59
2022/10/11 11:25:47;;;;;;;21.00;17.60;;;16.10;50.30;;;;;;5049999;28;20409;-59
2022/10/11 11:28:59;;;;;;;18.70;16.73;;;16.10;50.00;;;;;;5051057;28;20554;-60
2022/10/11 11:31:51;;;;;;;19.17;17.27;;;16.10;50.20;;;;;;5039171;28;20262;-59
2022/10/11 11:34:36;;;;;;;20.60;18.67;;;16.10;49.90;;;;;;5040633;28;20783;-61
2022/10/11 11:37:36;;;;;;;18.27;16.73;;;16.10;49.70;;;;;;5051077;28;20418;-59
2022/10/11 11:40:35;;;;;;;19.60;17.60;;;16.10;49.80;;;;;;5049118;28;20670;-59
2022/10/11 11:43:07;;;;;;;17.17;15.67;;;16.10;49.80;;;;;;5047982;28;20442;-59
2022/10/11 11:45:48;;;;;;;17.97;16.37;;;16.10;49.60;;;;;;5047969;28;20757;-59
2022/10/11 11:48:20;;;;;;;18.10;15.17;;;16.10;49.60;;;;;;5050713;28;20417;-59
2022/10/11 11:50:58;;;;;;;16.93;15.53;;;16.10;49.50;;;;;;5048249;28;20417;-59
2022/10/11 11:53:35;;;;;;;22.83;17.57;;;16.10;49.80;;;;;;5050682;28;20466;-59
2022/10/11 11:56:24;;;;;;;17.93;16.13;;;16.10;49.90;;;;;;5049396;28;20522;-59
2022/10/11 11:59:01;;;;;;;17.27;15.87;;;16.10;50.00;;;;;;5049865;28;20414;-59
2022/10/11 12:01:46;;;;;;;17.27;15.87;;;16.20;49.60;;;;;;5048164;28;20467;-59
2022/10/11 12:04:28;;;;;;;17.83;16.50;;;16.20;49.20;;;;;;5047815;28;20414;-59
2022/10/11 12:07:04;;;;;;;18.37;16.97;;;16.20;48.90;;;;;;5049528;28;20401;-59
2022/10/11 12:09:32;;;;;;;16.47;14.77;;;16.20;48.80;;;;;;5046926;28;21074;-59
2022/10/11 12:12:04;;;;;;;20.17;18.17;;;16.30;48.80;;;;;;5047310;28;20497;-58
2022/10/11 12:14:37;;;;;;;19.10;17.10;;;16.30;48.50;;;;;;5047625;28;20971;-59
2022/10/11 12:17:08;;;;;;;18.33;16.80;;;16.30;47.80;;;;;;5051458;28;20463;-58
2022/10/11 12:19:36;;;;;;;18.07;16.40;;;16.30;47.20;;;;;;5066695;28;20855;-58
2022/10/11 12:22:26;;;;;;;18.10;16.40;;;16.30;47.10;;;;;;5048527;28;20417;-59
2022/10/11 12:25:08;;;;;;;18.47;16.93;;;16.30;47.10;;;;;;5049586;28;20421;-58
2022/10/11 12:27:40;;;;;;;17.13;15.63;;;16.30;47.20;;;;;;5052713;28;20409;-58
2022/10/11 12:30:43;;;;;;;18.03;16.53;;;16.30;47.10;;;;;;5049369;28;20584;-58
2022/10/11 12:33:24;;;;;;;16.90;15.70;;;16.30;47.10;;;;;;5049774;28;20448;-58
2022/10/11 12:35:53;;;;;;;18.97;17.30;;;16.30;47.70;;;;;;5048382;28;20421;-58
2022/10/11 12:38:27;;;;;;;19.07;17.23;;;16.20;48.20;;;;;;5050405;28;20422;-59
2022/10/11 12:41:15;;;;;;;17.90;16.40;;;16.20;48.40;;;;;;5049929;28;20465;-58
2022/10/11 12:43:47;;;;;;;18.50;16.80;;;16.20;48.60;;;;;;5049572;28;20952;-58
2022/10/11 12:46:28;;;;;;;18.23;16.83;;;16.20;48.30;;;;;;5047803;28;20421;-58
2022/10/11 12:49:37;;;;;;;18.30;16.47;;;16.20;48.60;;;;;;5049443;28;20422;-62
2022/10/11 12:52:35;;;;;;;16.87;15.47;;;16.20;48.30;;;;;;5048572;28;20409;-64